createdAt,value
2016-11-21T00:00:19.300Z,1001.51
2016-11-21T00:01:27.943Z,1001.57
2016-11-21T00:02:36.613Z,1001.51
2016-11-21T00:03:45.236Z,1001.5
2016-11-21T00:04:53.861Z,1001.52
2016-11-21T00:06:02.508Z,1001.53
2016-11-21T00:07:11.152Z,1001.52
2016-11-21T00:08:19.793Z,1001.49
2016-11-21T00:09:28.389Z,1001.52
2016-11-21T00:10:36.987Z,1001.52
2016-11-21T00:11:45.583Z,1001.58
2016-11-21T00:12:54.209Z,1001.61
2016-11-21T00:14:02.829Z,1001.67
2016-11-21T00:15:11.449Z,1001.65
2016-11-21T00:16:20.066Z,1001.67
2016-11-21T00:17:28.673Z,1001.65
2016-11-21T00:18:37.308Z,1001.61
2016-11-21T00:19:45.935Z,1001.69
2016-11-21T00:20:54.551Z,1001.72
2016-11-21T00:22:03.167Z,1001.76
2016-11-21T00:23:11.796Z,1001.77
2016-11-21T00:24:20.444Z,1001.76
2016-11-21T00:25:29.089Z,1001.83
2016-11-21T00:26:37.728Z,1001.83
2016-11-21T00:27:46.353Z,1001.89
2016-11-21T00:28:55.003Z,1001.91
2016-11-21T00:30:03.622Z,1001.85
2016-11-21T00:31:12.240Z,1001.87
2016-11-21T00:32:20.840Z,1001.89
2016-11-21T00:33:29.479Z,1001.88
2016-11-21T00:34:38.107Z,1001.89
2016-11-21T00:35:46.730Z,1001.91
2016-11-21T00:36:55.351Z,1001.92
2016-11-21T00:38:03.972Z,1001.92
2016-11-21T00:39:12.602Z,1001.94
2016-11-21T00:40:21.213Z,1001.98
2016-11-21T00:41:29.805Z,1001.9
2016-11-21T00:42:38.443Z,1001.95
2016-11-21T00:43:47.076Z,1001.97
2016-11-21T00:44:55.693Z,1001.95
2016-11-21T00:46:04.314Z,1001.94
2016-11-21T00:47:12.939Z,1001.95
2016-11-21T00:48:21.603Z,1001.92
2016-11-21T00:49:30.205Z,1001.9
2016-11-21T00:50:38.841Z,1001.98
2016-11-21T00:51:47.462Z,1001.95
2016-11-21T00:52:56.096Z,1001.96
2016-11-21T00:54:04.737Z,1001.93
2016-11-21T00:55:13.383Z,1001.94
2016-11-21T00:56:22.006Z,1001.92
2016-11-21T00:57:30.647Z,1001.95
2016-11-21T00:58:39.298Z,1001.93
2016-11-21T00:59:47.915Z,1001.95
2016-11-21T01:00:56.539Z,1001.97
2016-11-21T01:02:05.139Z,1001.95
2016-11-21T01:03:13.791Z,1001.94
2016-11-21T01:04:22.413Z,1002.01
2016-11-21T01:05:31.053Z,1002
2016-11-21T01:06:39.673Z,1001.96
2016-11-21T01:07:48.291Z,1001.9
2016-11-21T01:08:56.913Z,1001.92
2016-11-21T01:10:05.535Z,1001.98
2016-11-21T01:11:14.167Z,1002
2016-11-21T01:12:22.793Z,1002.01
2016-11-21T01:13:31.423Z,1002.04
2016-11-21T01:14:40.039Z,1002.03
2016-11-21T01:15:48.664Z,1002.03
2016-11-21T01:16:57.311Z,1002.06
2016-11-21T01:18:05.931Z,1002.1
2016-11-21T01:19:14.557Z,1002.14
2016-11-21T01:20:23.199Z,1002.13
2016-11-21T01:21:31.849Z,1002.11
2016-11-21T01:22:40.488Z,1002.09
2016-11-21T01:23:49.114Z,1002.12
2016-11-21T01:24:57.734Z,1002.12
2016-11-21T01:26:06.378Z,1002.11
2016-11-21T01:27:15.008Z,1002.1
2016-11-21T01:28:23.622Z,1002.1
2016-11-21T01:29:32.276Z,1002.06
2016-11-21T01:30:40.889Z,1002.12
2016-11-21T01:31:49.520Z,1002.13
2016-11-21T01:32:58.149Z,1002.16
2016-11-21T01:34:06.770Z,1002.1
2016-11-21T01:35:15.378Z,1002.14
2016-11-21T01:36:24.042Z,1002.14
2016-11-21T01:37:32.666Z,1002.19
2016-11-21T01:38:41.293Z,1002.2
2016-11-21T01:39:49.914Z,1002.23
2016-11-21T01:40:58.554Z,1002.2
2016-11-21T01:42:07.204Z,1002.23
2016-11-21T01:43:15.877Z,1002.21
2016-11-21T01:44:24.516Z,1002.2
2016-11-21T01:45:33.139Z,1002.19
2016-11-21T01:46:41.760Z,1002.22
2016-11-21T01:47:50.428Z,1002.21
2016-11-21T01:48:59.085Z,1002.18
2016-11-21T01:50:07.699Z,1002.18
2016-11-21T01:51:16.325Z,1002.21
2016-11-21T01:52:24.945Z,1002.27
2016-11-21T01:53:33.587Z,1002.33
2016-11-21T01:54:42.233Z,1002.29
2016-11-21T01:55:50.858Z,1002.29
2016-11-21T01:56:59.507Z,1002.31
2016-11-21T01:58:08.148Z,1002.32
2016-11-21T01:59:16.779Z,1002.34
2016-11-21T02:00:25.389Z,1002.34
2016-11-21T02:01:34.014Z,1002.31
2016-11-21T02:02:42.663Z,1002.35
2016-11-21T02:03:51.278Z,1002.31
2016-11-21T02:04:59.901Z,1002.36
2016-11-21T02:06:08.549Z,1002.35
2016-11-21T02:07:17.216Z,1002.31
2016-11-21T02:08:25.830Z,1002.37
2016-11-21T02:09:34.455Z,1002.38
2016-11-21T02:10:43.414Z,1002.36
2016-11-21T02:11:52.030Z,1002.42
2016-11-21T02:13:00.652Z,1002.41
2016-11-21T02:14:09.295Z,1002.37
2016-11-21T02:15:17.900Z,1002.44
2016-11-21T02:16:26.515Z,1002.46
2016-11-21T02:17:35.138Z,1002.46
2016-11-21T02:18:43.770Z,1002.51
2016-11-21T02:19:52.381Z,1002.52
2016-11-21T02:21:01.024Z,1002.53
2016-11-21T02:22:09.663Z,1002.56
2016-11-21T02:23:18.288Z,1002.57
2016-11-21T02:24:26.908Z,1002.54
2016-11-21T02:25:35.535Z,1002.55
2016-11-21T02:26:44.180Z,1002.55
2016-11-21T02:27:52.852Z,1002.57
2016-11-21T02:29:01.473Z,1002.58
2016-11-21T02:30:10.143Z,1002.51
2016-11-21T02:31:18.785Z,1002.55
2016-11-21T02:32:27.460Z,1002.51
2016-11-21T02:33:36.095Z,1002.51
2016-11-21T02:34:44.748Z,1002.51
2016-11-21T02:35:53.376Z,1002.44
2016-11-21T02:37:02.015Z,1002.46
2016-11-21T02:38:10.658Z,1002.52
2016-11-21T02:39:19.308Z,1002.49
2016-11-21T02:40:27.961Z,1002.57
2016-11-21T02:41:36.592Z,1002.55
2016-11-21T02:42:45.218Z,1002.52
2016-11-21T02:43:53.846Z,1002.56
2016-11-21T02:45:02.485Z,1002.59
2016-11-21T02:46:11.107Z,1002.56
2016-11-21T02:47:19.731Z,1002.57
2016-11-21T02:48:28.382Z,1002.55
2016-11-21T02:49:37.015Z,1002.53
2016-11-21T02:50:45.669Z,1002.53
2016-11-21T02:51:54.287Z,1002.54
2016-11-21T02:53:02.929Z,1002.49
2016-11-21T02:54:11.559Z,1002.45
2016-11-21T02:55:20.180Z,1002.48
2016-11-21T02:56:28.799Z,1002.46
2016-11-21T02:57:37.427Z,1002.49
2016-11-21T02:58:46.053Z,1002.52
2016-11-21T02:59:54.680Z,1002.51
2016-11-21T03:01:03.289Z,1002.5
2016-11-21T03:02:12.210Z,1002.51
2016-11-21T03:03:20.851Z,1002.49
2016-11-21T03:04:29.497Z,1002.47
2016-11-21T03:05:38.140Z,1002.43
2016-11-21T03:06:46.743Z,1002.54
2016-11-21T03:07:55.361Z,1002.46
2016-11-21T03:09:04.003Z,1002.46
2016-11-21T03:10:12.650Z,1002.46
2016-11-21T03:11:21.274Z,1002.46
2016-11-21T03:12:29.899Z,1002.51
2016-11-21T03:13:38.527Z,1002.54
2016-11-21T03:14:47.463Z,1002.53
2016-11-21T03:15:56.064Z,1002.57
2016-11-21T03:17:04.727Z,1002.62
2016-11-21T03:18:13.373Z,1002.6
2016-11-21T03:19:22.001Z,1002.61
2016-11-21T03:20:30.647Z,1002.63
2016-11-21T03:21:39.264Z,1002.61
2016-11-21T03:22:48.196Z,1002.68
2016-11-21T03:23:56.806Z,1002.63
2016-11-21T03:25:05.420Z,1002.66
2016-11-21T03:26:14.066Z,1002.61
2016-11-21T03:27:22.673Z,1002.64
2016-11-21T03:28:31.266Z,1002.62
2016-11-21T03:29:39.862Z,1002.69
2016-11-21T03:30:48.805Z,1002.62
2016-11-21T03:31:57.434Z,1002.61
2016-11-21T03:33:06.056Z,1002.68
2016-11-21T03:34:14.675Z,1002.66
2016-11-21T03:35:23.317Z,1002.6
2016-11-21T03:36:31.946Z,1002.62
2016-11-21T03:37:40.589Z,1002.63
2016-11-21T03:38:49.206Z,1002.61
2016-11-21T03:39:57.832Z,1002.63
2016-11-21T03:41:06.465Z,1002.63
2016-11-21T03:42:15.087Z,1002.63
2016-11-21T03:43:23.696Z,1002.59
2016-11-21T03:44:32.317Z,1002.61
2016-11-21T03:45:40.963Z,1002.59
2016-11-21T03:46:49.588Z,1002.55
2016-11-21T03:47:58.222Z,1002.53
2016-11-21T03:49:06.829Z,1002.48
2016-11-21T03:50:15.467Z,1002.49
2016-11-21T03:51:24.092Z,1002.45
2016-11-21T03:52:32.738Z,1002.42
2016-11-21T03:53:41.355Z,1002.44
2016-11-21T03:54:49.973Z,1002.43
2016-11-21T03:55:58.620Z,1002.44
2016-11-21T03:57:07.288Z,1002.37
2016-11-21T03:58:15.915Z,1002.39
2016-11-21T03:59:24.840Z,1002.37
2016-11-21T04:00:33.486Z,1002.39
2016-11-21T04:01:42.108Z,1002.4
2016-11-21T04:02:50.724Z,1002.47
2016-11-21T04:03:59.328Z,1002.44
2016-11-21T04:05:07.971Z,1002.47
2016-11-21T04:06:16.613Z,1002.44
2016-11-21T04:07:25.263Z,1002.42
2016-11-21T04:08:33.907Z,1002.42
2016-11-21T04:09:42.529Z,1002.43
2016-11-21T04:10:51.176Z,1002.42
2016-11-21T04:11:59.797Z,1002.4
2016-11-21T04:13:08.439Z,1002.37
2016-11-21T04:14:17.064Z,1002.36
2016-11-21T04:15:25.699Z,1002.33
2016-11-21T04:16:34.330Z,1002.35
2016-11-21T04:17:42.949Z,1002.35
2016-11-21T04:18:51.580Z,1002.3
2016-11-21T04:20:00.220Z,1002.33
2016-11-21T04:21:08.866Z,1002.38
2016-11-21T04:22:17.533Z,1002.37
2016-11-21T04:23:26.159Z,1002.43
2016-11-21T04:24:34.772Z,1002.45
2016-11-21T04:25:43.400Z,1002.46
2016-11-21T04:26:52.047Z,1002.46
2016-11-21T04:28:00.692Z,1002.48
2016-11-21T04:29:09.363Z,1002.49
2016-11-21T04:30:17.987Z,1002.46
2016-11-21T04:31:26.626Z,1002.5
2016-11-21T04:32:35.233Z,1002.46
2016-11-21T04:33:43.848Z,1002.47
2016-11-21T04:34:52.487Z,1002.48
2016-11-21T04:36:01.112Z,1002.47
2016-11-21T04:37:09.749Z,1002.49
2016-11-21T04:38:18.382Z,1002.43
2016-11-21T04:39:26.980Z,1002.48
2016-11-21T04:40:35.618Z,1002.5
2016-11-21T04:41:44.216Z,1002.56
2016-11-21T04:42:52.864Z,1002.64
2016-11-21T04:44:01.489Z,1002.68
2016-11-21T04:45:10.123Z,1002.75
2016-11-21T04:46:18.747Z,1002.79
2016-11-21T04:47:27.357Z,1002.8
2016-11-21T04:48:36.027Z,1002.8
2016-11-21T04:49:44.660Z,1002.79
2016-11-21T04:50:53.310Z,1002.73
2016-11-21T04:52:01.932Z,1002.76
2016-11-21T04:53:10.555Z,1002.79
2016-11-21T04:54:19.171Z,1002.73
2016-11-21T04:55:27.792Z,1002.75
2016-11-21T04:56:36.434Z,1002.77
2016-11-21T04:57:45.037Z,1002.82
2016-11-21T04:58:53.663Z,1002.82
2016-11-21T05:00:02.283Z,1002.85
2016-11-21T05:01:10.893Z,1002.84
2016-11-21T05:02:19.501Z,1002.91
2016-11-21T05:03:28.150Z,1002.94
2016-11-21T05:04:36.789Z,1002.97
2016-11-21T05:05:45.410Z,1002.98
2016-11-21T05:06:54.048Z,1002.97
2016-11-21T05:08:02.681Z,1002.95
2016-11-21T05:09:11.352Z,1002.97
2016-11-21T05:10:19.991Z,1003.03
2016-11-21T05:11:28.637Z,1003.01
2016-11-21T05:12:37.292Z,1003.02
2016-11-21T05:13:45.932Z,1003
2016-11-21T05:14:54.580Z,1003.05
2016-11-21T05:16:03.192Z,1003.05
2016-11-21T05:17:11.820Z,1003.07
2016-11-21T05:18:20.447Z,1003.06
2016-11-21T05:19:29.067Z,1003.07
2016-11-21T05:20:37.684Z,1003.03
2016-11-21T05:21:46.309Z,1002.98
2016-11-21T05:22:54.953Z,1003.06
2016-11-21T05:24:03.564Z,1003.11
2016-11-21T05:25:12.190Z,1003.14
2016-11-21T05:26:20.819Z,1003.14
2016-11-21T05:27:29.440Z,1003.16
2016-11-21T05:28:38.073Z,1003.17
2016-11-21T05:29:46.708Z,1003.17
2016-11-21T05:30:55.337Z,1003.18
2016-11-21T05:32:03.950Z,1003.15
2016-11-21T05:33:12.596Z,1003.25
2016-11-21T05:34:21.267Z,1003.24
2016-11-21T05:35:29.911Z,1003.22
2016-11-21T05:36:38.509Z,1003.25
2016-11-21T05:37:47.150Z,1003.27
2016-11-21T05:38:55.777Z,1003.32
2016-11-21T05:40:04.421Z,1003.36
2016-11-21T05:41:13.039Z,1003.35
2016-11-21T05:42:21.690Z,1003.35
2016-11-21T05:43:30.299Z,1003.35
2016-11-21T05:44:38.927Z,1003.28
2016-11-21T05:45:47.555Z,1003.28
2016-11-21T05:46:56.162Z,1003.29
2016-11-21T05:48:04.794Z,1003.28
2016-11-21T05:49:13.417Z,1003.33
2016-11-21T05:50:22.008Z,1003.29
2016-11-21T05:51:30.646Z,1003.3
2016-11-21T05:52:39.254Z,1003.28
2016-11-21T05:53:47.889Z,1003.29
2016-11-21T05:54:56.492Z,1003.28
2016-11-21T05:56:05.135Z,1003.24
2016-11-21T05:57:13.765Z,1003.22
2016-11-21T05:58:22.382Z,1003.25
2016-11-21T05:59:31.007Z,1003.23
2016-11-21T06:00:39.652Z,1003.26
2016-11-21T06:01:48.269Z,1003.23
2016-11-21T06:02:56.873Z,1003.26
2016-11-21T06:04:05.483Z,1003.14
2016-11-21T06:05:14.155Z,1003.19
2016-11-21T06:06:22.809Z,1003.23
2016-11-21T06:07:31.428Z,1003.2
2016-11-21T06:08:40.050Z,1003.17
2016-11-21T06:09:48.697Z,1003.18
2016-11-21T06:10:57.314Z,1003.21
2016-11-21T06:12:06.238Z,1003.22
2016-11-21T06:13:14.855Z,1003.19
2016-11-21T06:14:23.468Z,1003.2
2016-11-21T06:15:32.064Z,1003.24
2016-11-21T06:16:40.672Z,1003.23
2016-11-21T06:17:49.314Z,1003.23
2016-11-21T06:18:57.946Z,1003.3
2016-11-21T06:20:06.575Z,1003.3
2016-11-21T06:21:15.170Z,1003.31
2016-11-21T06:22:23.777Z,1003.3
2016-11-21T06:23:32.417Z,1003.32
2016-11-21T06:24:41.045Z,1003.31
2016-11-21T06:25:49.685Z,1003.34
2016-11-21T06:26:58.330Z,1003.32
2016-11-21T06:28:06.979Z,1003.34
2016-11-21T06:29:15.618Z,1003.27
2016-11-21T06:30:24.640Z,1003.28
2016-11-21T06:31:33.236Z,1003.28
2016-11-21T06:32:41.843Z,1003.27
2016-11-21T06:33:50.489Z,1003.22
2016-11-21T06:34:59.128Z,1003.29
2016-11-21T06:36:07.775Z,1003.23
2016-11-21T06:37:16.396Z,1003.28
2016-11-21T06:38:25.012Z,1003.26
2016-11-21T06:39:33.645Z,1003.3
2016-11-21T06:40:42.292Z,1003.28
2016-11-21T06:41:50.933Z,1003.32
2016-11-21T06:42:59.555Z,1003.33
2016-11-21T06:44:08.179Z,1003.34
2016-11-21T06:45:16.825Z,1003.34
2016-11-21T06:46:25.453Z,1003.28
2016-11-21T06:47:34.086Z,1003.28
2016-11-21T06:48:42.924Z,1003.28
2016-11-21T06:49:51.914Z,1003.23
2016-11-21T06:51:00.577Z,1003.27
2016-11-21T06:52:09.195Z,1003.21
2016-11-21T06:53:17.850Z,1003.19
2016-11-21T06:54:26.488Z,1003.23
2016-11-21T06:55:35.116Z,1003.25
2016-11-21T06:56:43.737Z,1003.24
2016-11-21T06:57:52.396Z,1003.24
2016-11-21T06:59:01.025Z,1003.21
2016-11-21T07:00:09.639Z,1003.15
2016-11-21T07:01:18.249Z,1003.18
2016-11-21T07:02:26.867Z,1003.12
2016-11-21T07:03:35.493Z,1003.21
2016-11-21T07:04:44.109Z,1003.23
2016-11-21T07:05:52.709Z,1003.2
2016-11-21T07:07:01.347Z,1003.18
2016-11-21T07:08:09.969Z,1003.22
2016-11-21T07:09:18.594Z,1003.19
2016-11-21T07:10:27.241Z,1003.2
2016-11-21T07:11:35.861Z,1003.16
2016-11-21T07:12:44.478Z,1003.17
2016-11-21T07:13:53.129Z,1003.17
2016-11-21T07:15:01.755Z,1003.16
2016-11-21T07:16:10.366Z,1003.17
2016-11-21T07:17:18.997Z,1003.16
2016-11-21T07:18:27.636Z,1003.14
2016-11-21T07:19:36.251Z,1003.12
2016-11-21T07:20:44.900Z,1003.15
2016-11-21T07:21:53.826Z,1003.12
2016-11-21T07:23:02.469Z,1003.1
2016-11-21T07:24:11.115Z,1003.1
2016-11-21T07:25:19.727Z,1003.09
2016-11-21T07:26:28.360Z,1003.1
2016-11-21T07:27:37.002Z,1003.11
2016-11-21T07:28:45.604Z,1003.12
2016-11-21T07:29:54.237Z,1003.12
2016-11-21T07:31:02.846Z,1003.11
2016-11-21T07:32:11.462Z,1003.11
2016-11-21T07:33:20.113Z,1003.15
2016-11-21T07:34:28.758Z,1003.14
2016-11-21T07:35:37.396Z,1003.19
2016-11-21T07:36:46.021Z,1003.22
2016-11-21T07:37:54.634Z,1003.18
2016-11-21T07:39:03.268Z,1003.22
2016-11-21T07:40:11.889Z,1003.2
2016-11-21T07:41:20.527Z,1003.27
2016-11-21T07:42:29.157Z,1003.27
2016-11-21T07:43:37.803Z,1003.29
2016-11-21T07:44:46.477Z,1003.33
2016-11-21T07:45:55.119Z,1003.36
2016-11-21T07:47:03.741Z,1003.31
2016-11-21T07:48:12.362Z,1003.35
2016-11-21T07:49:21.004Z,1003.39
2016-11-21T07:50:29.603Z,1003.39
2016-11-21T07:51:38.271Z,1003.38
2016-11-21T07:52:46.892Z,1003.34
2016-11-21T07:53:55.513Z,1003.31
2016-11-21T07:55:04.165Z,1003.34
2016-11-21T07:56:12.809Z,1003.39
2016-11-21T07:57:21.429Z,1003.51
2016-11-21T07:58:30.047Z,1003.46
2016-11-21T07:59:38.673Z,1003.38
2016-11-21T08:00:47.607Z,1003.45
2016-11-21T08:01:56.215Z,1003.44
2016-11-21T08:03:04.857Z,1003.42
2016-11-21T08:04:13.503Z,1003.45
2016-11-21T08:05:22.125Z,1003.41
2016-11-21T08:06:30.776Z,1003.44
2016-11-21T08:07:39.392Z,1003.46
2016-11-21T08:08:48.016Z,1003.46
2016-11-21T08:09:56.609Z,1003.47
2016-11-21T08:11:05.205Z,1003.5
2016-11-21T08:12:13.805Z,1003.45
2016-11-21T08:13:22.449Z,1003.49
2016-11-21T08:14:31.099Z,1003.41
2016-11-21T08:15:39.744Z,1003.45
2016-11-21T08:16:48.387Z,1003.43
2016-11-21T08:17:57.012Z,1003.45
2016-11-21T08:19:05.633Z,1003.49
2016-11-21T08:20:14.249Z,1003.55
2016-11-21T08:21:22.868Z,1003.61
2016-11-21T08:22:31.524Z,1003.6
2016-11-21T08:23:40.188Z,1003.6
2016-11-21T08:24:48.855Z,1003.7
2016-11-21T08:25:57.509Z,1003.68
2016-11-21T08:27:06.126Z,1003.66
2016-11-21T08:28:14.750Z,1003.64
2016-11-21T08:29:23.376Z,1003.64
2016-11-21T08:30:32.014Z,1003.68
2016-11-21T08:31:40.610Z,1003.7
2016-11-21T08:32:49.257Z,1003.64
2016-11-21T08:33:57.895Z,1003.6
2016-11-21T08:35:06.500Z,1003.63
2016-11-21T08:36:15.150Z,1003.61
2016-11-21T08:37:23.770Z,1003.67
2016-11-21T08:38:32.391Z,1003.77
2016-11-21T08:39:41.033Z,1003.8
2016-11-21T08:40:49.629Z,1003.67
2016-11-21T08:41:58.276Z,1003.67
2016-11-21T08:43:06.906Z,1003.64
2016-11-21T08:44:15.818Z,1003.63
2016-11-21T08:45:24.439Z,1003.68
2016-11-21T08:46:33.064Z,1003.67
2016-11-21T08:47:41.699Z,1003.58
2016-11-21T08:48:50.326Z,1003.58
2016-11-21T08:49:58.982Z,1003.61
2016-11-21T08:51:07.617Z,1003.59
2016-11-21T08:52:16.221Z,1003.61
2016-11-21T08:53:24.869Z,1003.62
2016-11-21T08:54:33.505Z,1003.58
2016-11-21T08:55:42.159Z,1003.63
2016-11-21T08:56:50.794Z,1003.61
2016-11-21T08:57:59.401Z,1003.59
2016-11-21T08:59:08.040Z,1003.53
2016-11-21T09:00:16.686Z,1003.56
2016-11-21T09:01:25.287Z,1003.6
2016-11-21T09:02:33.903Z,1003.6
2016-11-21T09:03:42.545Z,1003.64
2016-11-21T09:04:51.179Z,1003.68
2016-11-21T09:05:59.849Z,1003.72
2016-11-21T09:07:08.495Z,1003.65
2016-11-21T09:08:17.134Z,1003.59
2016-11-21T09:09:25.751Z,1003.54
2016-11-21T09:10:34.379Z,1003.58
2016-11-21T09:11:43.018Z,1003.48
2016-11-21T09:12:51.672Z,1003.47
2016-11-21T09:14:00.317Z,1003.43
2016-11-21T09:15:08.943Z,1003.55
2016-11-21T09:16:17.582Z,1003.67
2016-11-21T09:17:26.209Z,1003.65
2016-11-21T09:18:34.852Z,1003.57
2016-11-21T09:19:43.504Z,1003.61
2016-11-21T09:20:52.137Z,1003.65
2016-11-21T09:22:00.770Z,1003.64
2016-11-21T09:23:09.393Z,1003.68
2016-11-21T09:24:18.008Z,1003.71
2016-11-21T09:25:26.636Z,1003.73
2016-11-21T09:26:35.279Z,1003.74
2016-11-21T09:27:43.900Z,1003.67
2016-11-21T09:28:52.526Z,1003.63
2016-11-21T09:30:01.470Z,1003.61
2016-11-21T09:31:10.089Z,1003.58
2016-11-21T09:32:18.714Z,1003.58
2016-11-21T09:33:27.351Z,1003.58
2016-11-21T09:34:35.965Z,1003.59
2016-11-21T09:35:44.619Z,1003.61
2016-11-21T09:36:53.269Z,1003.68
2016-11-21T09:38:01.890Z,1003.62
2016-11-21T09:39:10.524Z,1003.6
2016-11-21T09:40:19.132Z,1003.6
2016-11-21T09:41:27.773Z,1003.69
2016-11-21T09:42:36.400Z,1003.63
2016-11-21T09:43:45.046Z,1003.62
2016-11-21T09:44:53.708Z,1003.61
2016-11-21T09:46:02.364Z,1003.56
2016-11-21T09:47:11.001Z,1003.5
2016-11-21T09:48:19.630Z,1003.51
2016-11-21T09:49:28.272Z,1003.49
2016-11-21T09:50:36.893Z,1003.53
2016-11-21T09:51:45.489Z,1003.53
2016-11-21T09:52:54.113Z,1003.48
2016-11-21T09:54:02.731Z,1003.48
2016-11-21T09:55:11.359Z,1003.43
2016-11-21T09:56:19.999Z,1003.47
2016-11-21T09:57:28.623Z,1003.48
2016-11-21T09:58:37.266Z,1003.5
2016-11-21T09:59:45.919Z,1003.5
2016-11-21T10:00:54.539Z,1003.45
2016-11-21T10:02:03.179Z,1003.39
2016-11-21T10:03:11.829Z,1003.34
2016-11-21T10:04:20.476Z,1003.35
2016-11-21T10:05:29.117Z,1003.38
2016-11-21T10:06:37.750Z,1003.42
2016-11-21T10:07:46.682Z,1003.3
2016-11-21T10:08:55.305Z,1003.25
2016-11-21T10:10:03.953Z,1003.27
2016-11-21T10:11:12.594Z,1003.26
2016-11-21T10:12:21.244Z,1003.18
2016-11-21T10:13:29.893Z,1003.16
2016-11-21T10:14:38.544Z,1003.16
2016-11-21T10:15:47.182Z,1003.16
2016-11-21T10:16:55.803Z,1003.13
2016-11-21T10:18:04.433Z,1003.11
2016-11-21T10:19:13.047Z,1003.1
2016-11-21T10:20:21.671Z,1003.16
2016-11-21T10:21:30.317Z,1003.06
2016-11-21T10:22:38.963Z,1003.07
2016-11-21T10:23:47.613Z,1003.04
2016-11-21T10:24:56.259Z,1003
2016-11-21T10:26:04.926Z,1002.99
2016-11-21T10:27:13.543Z,1002.96
2016-11-21T10:28:22.166Z,1002.96
2016-11-21T10:29:43.523Z,1002.92
2016-11-21T10:30:52.159Z,1002.89
2016-11-21T10:32:00.783Z,1002.91
2016-11-21T10:33:09.427Z,1002.8
2016-11-21T10:34:18.052Z,1002.78
2016-11-21T10:35:26.695Z,1002.75
2016-11-21T10:36:35.333Z,1002.69
2016-11-21T10:37:43.986Z,1002.66
2016-11-21T10:38:52.633Z,1002.67
2016-11-21T10:40:01.275Z,1002.64
2016-11-21T10:41:09.934Z,1002.63
2016-11-21T10:42:18.589Z,1002.63
2016-11-21T10:43:27.222Z,1002.62
2016-11-21T10:44:35.852Z,1002.55
2016-11-21T10:45:44.788Z,1002.56
2016-11-21T10:46:53.423Z,1002.55
2016-11-21T10:48:02.080Z,1002.57
2016-11-21T10:49:10.742Z,1002.57
2016-11-21T10:50:19.381Z,1002.6
2016-11-21T10:51:27.996Z,1002.57
2016-11-21T10:52:36.631Z,1002.59
2016-11-21T10:53:45.281Z,1002.55
2016-11-21T10:54:53.907Z,1002.52
2016-11-21T10:56:02.553Z,1002.5
2016-11-21T10:57:11.179Z,1002.53
2016-11-21T10:58:20.117Z,1002.54
2016-11-21T10:59:28.789Z,1002.51
2016-11-21T11:00:37.752Z,1002.53
2016-11-21T11:01:46.404Z,1002.48
2016-11-21T11:02:55.047Z,1002.43
2016-11-21T11:04:03.689Z,1002.45
2016-11-21T11:05:12.321Z,1002.4
2016-11-21T11:06:20.971Z,1002.45
2016-11-21T11:07:29.605Z,1002.43
2016-11-21T11:08:38.252Z,1002.38
2016-11-21T11:09:46.876Z,1002.38
2016-11-21T11:10:55.523Z,1002.39
2016-11-21T11:12:04.473Z,1002.4
2016-11-21T11:13:13.120Z,1002.39
2016-11-21T11:14:21.762Z,1002.42
2016-11-21T11:15:30.426Z,1002.41
2016-11-21T11:16:39.042Z,1002.39
2016-11-21T11:17:47.675Z,1002.41
2016-11-21T11:18:56.347Z,1002.41
2016-11-21T11:20:04.992Z,1002.41
2016-11-21T11:21:13.615Z,1002.38
2016-11-21T11:22:22.277Z,1002.43
2016-11-21T11:23:30.903Z,1002.38
2016-11-21T11:24:39.526Z,1002.37
2016-11-21T11:25:48.166Z,1002.42
2016-11-21T11:26:56.817Z,1002.41
2016-11-21T11:28:05.440Z,1002.37
2016-11-21T11:29:14.075Z,1002.32
2016-11-21T11:30:22.703Z,1002.26
2016-11-21T11:31:31.327Z,1002.3
2016-11-21T11:32:39.955Z,1002.25
2016-11-21T11:33:48.594Z,1002.27
2016-11-21T11:34:57.217Z,1002.3
2016-11-21T11:36:05.865Z,1002.25
2016-11-21T11:37:14.516Z,1002.23
2016-11-21T11:38:23.152Z,1002.21
2016-11-21T11:39:31.748Z,1002.21
2016-11-21T11:40:40.376Z,1002.24
2016-11-21T11:41:48.998Z,1002.3
2016-11-21T11:42:57.639Z,1002.2
2016-11-21T11:44:06.307Z,1002.14
2016-11-21T11:45:14.980Z,1002.11
2016-11-21T11:46:23.652Z,1002.13
2016-11-21T11:47:32.304Z,1002.13
2016-11-21T11:48:40.959Z,1001.94
2016-11-21T11:49:49.589Z,1002
2016-11-21T11:50:58.258Z,1002.03
2016-11-21T11:52:06.904Z,1001.98
2016-11-21T11:53:15.559Z,1001.97
2016-11-21T11:54:24.235Z,1001.95
2016-11-21T11:55:32.935Z,1001.95
2016-11-21T11:56:41.575Z,1001.94
2016-11-21T11:57:50.237Z,1001.97
2016-11-21T11:58:59.216Z,1001.99
2016-11-21T12:00:07.870Z,1002.04
2016-11-21T12:01:16.524Z,1002.02
2016-11-21T12:02:25.220Z,1001.98
2016-11-21T12:03:33.870Z,1001.97
2016-11-21T12:04:42.572Z,1001.99
2016-11-21T12:05:51.228Z,1001.98
2016-11-21T12:06:59.880Z,1001.95
2016-11-21T12:08:08.583Z,1001.84
2016-11-21T12:09:17.264Z,1001.84
2016-11-21T12:10:25.938Z,1001.79
2016-11-21T12:11:34.597Z,1001.8
2016-11-21T12:12:43.234Z,1001.8
2016-11-21T12:13:51.890Z,1001.81
2016-11-21T12:15:00.536Z,1001.83
2016-11-21T12:16:09.198Z,1001.83
2016-11-21T12:17:17.876Z,1001.88
2016-11-21T12:18:26.515Z,1001.76
2016-11-21T12:19:35.140Z,1001.78
2016-11-21T12:20:43.802Z,1001.75
2016-11-21T12:21:52.429Z,1001.76
2016-11-21T12:23:01.083Z,1001.73
2016-11-21T12:24:09.771Z,1001.73
2016-11-21T12:25:18.444Z,1001.73
2016-11-21T12:26:27.074Z,1001.68
2016-11-21T12:27:35.741Z,1001.66
2016-11-21T12:28:44.374Z,1001.66
2016-11-21T12:29:53.078Z,1001.64
2016-11-21T12:31:01.775Z,1001.66
2016-11-21T12:32:10.444Z,1001.6
2016-11-21T12:33:19.123Z,1001.65
2016-11-21T12:34:27.796Z,1001.64
2016-11-21T12:35:36.440Z,1001.6
2016-11-21T12:36:45.103Z,1001.59
2016-11-21T12:37:53.708Z,1001.63
2016-11-21T12:39:02.379Z,1001.66
2016-11-21T12:40:11.059Z,1001.66
2016-11-21T12:41:19.713Z,1001.64
2016-11-21T12:42:28.360Z,1001.65
2016-11-21T12:43:37.032Z,1001.65
2016-11-21T12:44:45.685Z,1001.65
2016-11-21T12:45:54.351Z,1001.67
2016-11-21T12:47:03.019Z,1001.6
2016-11-21T12:48:11.684Z,1001.6
2016-11-21T12:49:20.373Z,1001.59
2016-11-21T12:50:29.001Z,1001.56
2016-11-21T12:51:37.656Z,1001.62
2016-11-21T12:52:46.343Z,1001.56
2016-11-21T12:53:55.015Z,1001.54
2016-11-21T12:55:03.661Z,1001.59
2016-11-21T12:56:12.351Z,1001.54
2016-11-21T12:57:21.034Z,1001.58
2016-11-21T12:58:29.731Z,1001.59
2016-11-21T12:59:38.395Z,1001.65
2016-11-21T13:00:47.047Z,1001.63
2016-11-21T13:01:55.713Z,1001.64
2016-11-21T13:03:04.351Z,1001.63
2016-11-21T13:04:13.012Z,1001.59
2016-11-21T13:05:21.700Z,1001.6
2016-11-21T13:06:30.381Z,1001.62
2016-11-21T13:07:39.032Z,1001.62
2016-11-21T13:08:47.720Z,1001.66
2016-11-21T13:09:56.405Z,1001.59
2016-11-21T13:11:05.079Z,1001.6
2016-11-21T13:12:13.761Z,1001.62
2016-11-21T13:13:22.413Z,1001.63
2016-11-21T13:14:31.062Z,1001.6
2016-11-21T13:15:39.696Z,1001.67
2016-11-21T13:16:48.345Z,1001.6
2016-11-21T13:17:57.057Z,1001.64
2016-11-21T13:19:05.714Z,1001.64
2016-11-21T13:20:14.382Z,1001.6
2016-11-21T13:21:23.052Z,1001.62
2016-11-21T13:22:31.683Z,1001.65
2016-11-21T13:23:40.323Z,1001.66
2016-11-21T13:24:48.973Z,1001.65
2016-11-21T13:25:57.623Z,1001.61
2016-11-21T13:27:06.298Z,1001.57
2016-11-21T13:28:15.282Z,1001.57
2016-11-21T13:29:23.925Z,1001.57
2016-11-21T13:30:32.596Z,1001.57
2016-11-21T13:31:41.261Z,1001.56
2016-11-21T13:32:49.932Z,1001.59
2016-11-21T13:33:58.584Z,1001.6
2016-11-21T13:35:07.264Z,1001.59
2016-11-21T13:36:15.918Z,1001.57
2016-11-21T13:37:24.526Z,1001.55
2016-11-21T13:38:33.195Z,1001.58
2016-11-21T13:39:41.848Z,1001.59
2016-11-21T13:40:50.537Z,1001.57
2016-11-21T13:41:59.160Z,1001.58
2016-11-21T13:43:07.837Z,1001.63
2016-11-21T13:44:16.525Z,1001.68
2016-11-21T13:45:25.188Z,1001.69
2016-11-21T13:46:33.837Z,1001.73
2016-11-21T13:47:42.496Z,1001.72
2016-11-21T13:48:51.189Z,1001.68
2016-11-21T13:49:59.880Z,1001.71
2016-11-21T13:51:08.526Z,1001.73
2016-11-21T13:52:17.175Z,1001.69
2016-11-21T13:53:25.819Z,1001.71